Time;durP1;ratioP1;P1;durP2;ratioP2;P2;SDS_P1;SDS_P2;PMS_P1;PMS_P2;Temp;Humidity;BMP_temperature;BMP_pressure;BME280_temperature;BME280_humidity;BME280_pressure;Samples;Min_cycle;Max_cycle;Signal;HPM_P1;HPM_P2
2022/11/24 00:02:22;;;;;;;0.40;0.40;;;4.40;99.90;;;;;;5023476;28;20195;-92
2022/11/24 00:04:48;;;;;;;0.40;0.40;;;4.40;99.90;;;;;;5026530;28;20578;-92
2022/11/24 00:07:13;;;;;;;0.40;0.40;;;4.40;99.90;;;;;;5031067;28;20321;-90
2022/11/24 00:09:39;;;;;;;0.30;0.30;;;4.40;99.90;;;;;;5014537;28;20191;-90
2022/11/24 00:12:04;;;;;;;0.40;0.40;;;4.40;99.90;;;;;;5017074;28;20239;-91
2022/11/24 00:14:29;;;;;;;0.40;0.40;;;4.40;99.90;;;;;;5011015;28;20370;-90
2022/11/24 00:16:55;;;;;;;0.40;0.40;;;4.40;99.90;;;;;;5008267;28;20211;-91
2022/11/24 00:19:20;;;;;;;0.30;0.30;;;4.40;99.90;;;;;;5009206;28;20200;-91
2022/11/24 00:21:46;;;;;;;0.23;0.23;;;4.30;99.90;;;;;;5011513;28;20226;-91
2022/11/24 00:24:11;;;;;;;0.30;0.30;;;4.30;99.90;;;;;;4993138;28;20189;-92
2022/11/24 00:26:37;;;;;;;0.30;0.30;;;4.30;99.90;;;;;;4972702;28;20597;-92
2022/11/24 00:29:06;;;;;;;0.40;0.40;;;4.30;99.90;;;;;;5008710;28;20192;-92
2022/11/24 00:31:37;;;;;;;0.40;0.40;;;4.30;99.90;;;;;;5004198;28;20188;-91
2022/11/24 00:34:05;;;;;;;0.40;0.40;;;4.30;99.90;;;;;;5004368;28;20495;-91
2022/11/24 00:36:33;;;;;;;0.40;0.40;;;4.40;99.90;;;;;;5000146;28;20442;-90
2022/11/24 00:39:01;;;;;;;0.33;0.33;;;4.40;99.90;;;;;;5009915;28;20545;-91
2022/11/24 00:41:28;;;;;;;0.37;0.37;;;4.40;99.90;;;;;;5007544;28;20458;-91
2022/11/24 00:43:55;;;;;;;0.40;0.40;;;4.40;99.90;;;;;;4992808;28;20449;-90
2022/11/24 00:46:21;;;;;;;0.30;0.30;;;4.40;99.90;;;;;;5006748;28;20538;-91
2022/11/24 00:48:47;;;;;;;0.40;0.40;;;4.40;99.90;;;;;;5004822;28;20455;-91
2022/11/24 00:51:14;;;;;;;0.40;0.40;;;4.40;99.90;;;;;;5009229;28;20454;-90
2022/11/24 00:53:41;;;;;;;0.37;0.37;;;4.40;99.90;;;;;;5009642;28;20275;-91
2022/11/24 00:56:08;;;;;;;0.30;0.30;;;4.40;99.90;;;;;;5009209;28;20989;-91
2022/11/24 00:58:33;;;;;;;0.30;0.30;;;4.40;99.90;;;;;;5009433;28;20923;-90
2022/11/24 01:01:03;;;;;;;0.20;0.20;;;4.40;99.90;;;;;;4990642;28;20454;-92
2022/11/24 01:03:29;;;;;;;0.30;0.30;;;4.50;99.90;;;;;;5008113;28;20192;-90
2022/11/24 01:05:54;;;;;;;0.30;0.30;;;4.40;99.90;;;;;;4991172;28;20442;-90
2022/11/24 01:08:20;;;;;;;0.37;0.37;;;4.50;99.90;;;;;;4993752;28;20196;-90
2022/11/24 01:10:45;;;;;;;0.40;0.40;;;4.40;99.90;;;;;;5006748;28;20222;-90
2022/11/24 01:13:12;;;;;;;0.40;0.40;;;4.40;99.90;;;;;;5024027;28;20211;-90
2022/11/24 01:15:38;;;;;;;0.33;0.33;;;4.50;99.90;;;;;;5022145;28;20279;-88
2022/11/24 01:18:04;;;;;;;0.33;0.33;;;4.40;99.90;;;;;;5019095;28;21141;-89
2022/11/24 01:20:31;;;;;;;0.30;0.30;;;4.40;99.90;;;;;;5024002;28;20188;-89
2022/11/24 01:22:56;;;;;;;0.40;0.40;;;4.40;99.90;;;;;;5019407;28;20453;-88
2022/11/24 01:25:22;;;;;;;0.30;0.30;;;4.40;99.90;;;;;;5013275;28;20855;-87
2022/11/24 01:27:47;;;;;;;0.30;0.30;;;4.40;99.90;;;;;;5027327;28;20203;-87
2022/11/24 01:30:13;;;;;;;0.30;0.30;;;4.30;99.90;;;;;;5009941;28;20188;-88
2022/11/24 01:32:38;;;;;;;0.40;0.40;;;4.30;99.90;;;;;;5017450;28;20246;-89
2022/11/24 01:35:05;;;;;;;0.40;0.40;;;4.30;99.90;;;;;;5028827;28;22027;-89
2022/11/24 01:37:31;;;;;;;0.30;0.30;;;4.30;99.90;;;;;;5029140;28;20281;-88
2022/11/24 01:39:56;;;;;;;0.40;0.40;;;4.30;99.90;;;;;;5031123;28;20470;-88
2022/11/24 01:42:22;;;;;;;0.40;0.40;;;4.30;99.90;;;;;;5027159;28;20266;-89
2022/11/24 01:44:50;;;;;;;0.40;0.40;;;4.30;99.90;;;;;;5027295;28;20264;-89
2022/11/24 01:47:26;;;;;;;0.30;0.30;;;4.30;99.90;;;;;;5026104;28;20191;-88
2022/11/24 01:49:58;;;;;;;0.33;0.33;;;4.30;99.90;;;;;;5027359;28;20453;-88
2022/11/24 01:52:42;;;;;;;0.40;0.40;;;4.30;99.90;;;;;;5027487;28;20442;-89
2022/11/24 01:55:12;;;;;;;0.30;0.30;;;4.30;99.90;;;;;;5015837;28;21020;-87
2022/11/24 01:57:44;;;;;;;0.40;0.40;;;4.30;99.90;;;;;;5021542;28;20438;-87
2022/11/24 02:00:13;;;;;;;0.40;0.40;;;4.20;99.90;;;;;;5020613;28;20453;-88
2022/11/24 02:02:39;;;;;;;0.40;0.40;;;4.20;99.90;;;;;;5024394;28;20438;-88
2022/11/24 02:05:27;;;;;;;0.40;0.40;;;4.20;99.90;;;;;;5030091;28;20532;-88
2022/11/24 02:07:54;;;;;;;0.40;0.40;;;4.20;99.90;;;;;;4998844;28;20458;-88
2022/11/24 02:10:21;;;;;;;0.40;0.40;;;4.10;99.90;;;;;;5027934;28;20438;-88
2022/11/24 02:12:49;;;;;;;0.40;0.40;;;4.10;99.90;;;;;;5031039;28;20620;-89
2022/11/24 02:15:16;;;;;;;0.40;0.40;;;4.10;99.90;;;;;;5027196;28;20576;-90
2022/11/24 02:17:42;;;;;;;0.30;0.30;;;4.20;99.90;;;;;;5011346;28;20430;-88
2022/11/24 02:20:09;;;;;;;0.40;0.40;;;4.20;99.90;;;;;;5029923;28;20942;-87
2022/11/24 02:22:53;;;;;;;0.40;0.40;;;4.20;99.90;;;;;;5032812;28;20179;-89
2022/11/24 02:25:43;;;;;;;0.40;0.40;;;4.20;99.90;;;;;;5035054;28;20444;-89
2022/11/24 02:28:12;;;;;;;0.40;0.40;;;4.20;99.90;;;;;;5030525;28;20449;-89
2022/11/24 02:30:38;;;;;;;0.40;0.40;;;4.20;99.90;;;;;;5026772;28;22173;-91
2022/11/24 02:33:04;;;;;;;0.40;0.40;;;4.20;99.90;;;;;;5025150;28;20454;-88
2022/11/24 02:35:30;;;;;;;0.40;0.40;;;4.20;99.90;;;;;;5021194;28;20307;-88
2022/11/24 02:37:56;;;;;;;0.40;0.40;;;4.20;99.90;;;;;;5029667;28;20195;-89
2022/11/24 02:40:25;;;;;;;0.30;0.30;;;4.20;99.90;;;;;;5029109;28;20457;-89
2022/11/24 02:42:55;;;;;;;0.40;0.40;;;4.20;99.90;;;;;;5029839;28;20183;-89
2022/11/24 02:45:21;;;;;;;0.40;0.40;;;4.20;99.90;;;;;;5030096;28;20621;-88
2022/11/24 02:47:47;;;;;;;0.37;0.37;;;4.20;99.90;;;;;;5029624;28;20445;-88
2022/11/24 02:50:12;;;;;;;0.30;0.30;;;4.20;99.90;;;;;;5026419;28;20557;-89
2022/11/24 02:52:38;;;;;;;0.33;0.33;;;4.20;99.90;;;;;;5023277;28;20785;-88
2022/11/24 02:55:04;;;;;;;0.40;0.40;;;4.20;99.90;;;;;;5035124;28;20594;-89
2022/11/24 02:57:30;;;;;;;0.30;0.30;;;4.20;99.90;;;;;;5009195;28;20556;-88
2022/11/24 02:59:55;;;;;;;0.30;0.30;;;4.20;99.90;;;;;;5030125;28;20446;-87
2022/11/24 03:02:21;;;;;;;0.37;0.37;;;4.30;99.90;;;;;;5017221;28;20273;-89
2022/11/24 03:04:46;;;;;;;0.40;0.40;;;4.30;99.90;;;;;;5025226;28;20186;-88
2022/11/24 03:07:12;;;;;;;0.30;0.30;;;4.30;99.90;;;;;;5031138;28;20191;-88
2022/11/24 03:09:37;;;;;;;0.20;0.20;;;4.30;99.90;;;;;;5021208;28;20640;-87
2022/11/24 03:12:03;;;;;;;0.30;0.30;;;4.30;99.90;;;;;;5034556;28;20227;-88
2022/11/24 03:14:29;;;;;;;0.30;0.30;;;4.30;99.90;;;;;;5030287;28;20683;-88
2022/11/24 03:16:54;;;;;;;0.37;0.37;;;4.30;99.90;;;;;;5027657;28;20202;-89
2022/11/24 03:19:19;;;;;;;0.40;0.40;;;4.30;99.90;;;;;;5026621;28;20202;-89
2022/11/24 03:21:45;;;;;;;0.40;0.40;;;4.40;99.90;;;;;;5024057;28;20270;-88
2022/11/24 03:24:10;;;;;;;0.30;0.30;;;4.40;99.90;;;;;;5022927;28;20203;-87
2022/11/24 03:26:36;;;;;;;0.40;0.40;;;4.40;99.90;;;;;;5012980;28;20539;-88
2022/11/24 03:29:01;;;;;;;0.37;0.37;;;4.40;99.90;;;;;;5016459;28;20252;-88
2022/11/24 03:31:27;;;;;;;0.30;0.30;;;4.40;99.90;;;;;;5034756;28;20655;-88
2022/11/24 03:33:52;;;;;;;0.40;0.40;;;4.40;99.90;;;;;;5029934;28;20219;-88
2022/11/24 03:36:18;;;;;;;0.20;0.20;;;4.50;99.90;;;;;;5035631;28;21023;-87
2022/11/24 03:38:44;;;;;;;0.40;0.40;;;4.50;99.90;;;;;;5015339;28;20187;-87
2022/11/24 03:41:09;;;;;;;0.40;0.40;;;4.50;99.90;;;;;;5012877;28;20223;-88
2022/11/24 03:43:35;;;;;;;0.30;0.30;;;4.50;99.90;;;;;;5027747;28;20454;-88
2022/11/24 03:46:01;;;;;;;0.30;0.30;;;4.50;99.90;;;;;;5016215;28;20218;-89
2022/11/24 03:48:26;;;;;;;0.30;0.30;;;4.50;99.90;;;;;;5024887;28;20229;-89
2022/11/24 03:50:57;;;;;;;0.30;0.30;;;4.50;99.90;;;;;;5022825;28;20653;-89
2022/11/24 03:53:25;;;;;;;0.40;0.40;;;4.50;99.90;;;;;;5029490;28;20227;-88
2022/11/24 03:55:51;;;;;;;0.30;0.30;;;4.50;99.90;;;;;;5027193;28;20457;-88
2022/11/24 03:58:17;;;;;;;0.30;0.30;;;4.50;99.90;;;;;;5028572;28;20453;-88
2022/11/24 04:00:43;;;;;;;0.30;0.30;;;4.50;99.90;;;;;;5018358;28;20451;-88
2022/11/24 04:03:08;;;;;;;0.30;0.30;;;4.50;99.90;;;;;;5031130;28;20964;-88
2022/11/24 04:05:35;;;;;;;0.30;0.30;;;4.50;99.90;;;;;;5030029;28;20200;-88
2022/11/24 04:08:02;;;;;;;0.40;0.40;;;4.60;99.90;;;;;;5023684;28;20249;-88
2022/11/24 04:10:29;;;;;;;0.40;0.40;;;4.60;99.90;;;;;;5026663;28;20460;-88
2022/11/24 04:12:54;;;;;;;0.30;0.30;;;4.60;99.90;;;;;;5025821;28;20482;-88
2022/11/24 04:15:20;;;;;;;0.30;0.30;;;4.60;99.90;;;;;;5020575;28;20551;-88
2022/11/24 04:17:47;;;;;;;0.30;0.30;;;4.60;99.90;;;;;;5027847;28;20195;-88
2022/11/24 04:20:13;;;;;;;0.40;0.40;;;4.60;99.90;;;;;;5026222;28;20438;-88
2022/11/24 04:22:39;;;;;;;0.30;0.30;;;4.60;99.90;;;;;;5024022;28;20538;-88
2022/11/24 04:25:05;;;;;;;0.40;0.40;;;4.60;99.90;;;;;;5020492;28;20930;-89
2022/11/24 04:27:32;;;;;;;0.37;0.37;;;4.60;99.90;;;;;;5020639;28;20192;-89
2022/11/24 04:29:58;;;;;;;0.30;0.30;;;4.60;99.90;;;;;;5016788;28;20445;-87
2022/11/24 04:32:23;;;;;;;0.30;0.30;;;4.60;99.90;;;;;;5021324;28;20446;-89
2022/11/24 04:34:49;;;;;;;0.40;0.40;;;4.60;99.90;;;;;;5024966;28;20238;-88
2022/11/24 04:37:14;;;;;;;0.33;0.33;;;4.60;99.90;;;;;;5029710;28;20184;-88
2022/11/24 04:39:40;;;;;;;0.40;0.40;;;4.60;99.90;;;;;;5009138;28;21037;-88
2022/11/24 04:42:05;;;;;;;0.30;0.30;;;4.60;99.90;;;;;;5025751;28;20199;-89
2022/11/24 04:44:31;;;;;;;0.30;0.30;;;4.60;99.90;;;;;;5032169;28;20302;-90
2022/11/24 04:46:56;;;;;;;0.40;0.40;;;4.60;99.90;;;;;;5018509;28;20229;-88
2022/11/24 04:49:22;;;;;;;0.40;0.40;;;4.60;99.90;;;;;;5027438;28;20199;-87
2022/11/24 04:51:47;;;;;;;0.30;0.30;;;4.60;99.90;;;;;;5026075;28;20290;-87
2022/11/24 04:54:13;;;;;;;0.30;0.30;;;4.60;99.90;;;;;;5025969;28;21078;-88
2022/11/24 04:56:40;;;;;;;0.30;0.30;;;4.60;99.90;;;;;;5019455;28;20188;-88
2022/11/24 04:59:06;;;;;;;0.30;0.30;;;4.60;99.90;;;;;;5033807;28;20324;-88
2022/11/24 05:01:32;;;;;;;0.30;0.30;;;4.60;99.90;;;;;;5024474;28;20450;-88
2022/11/24 05:03:58;;;;;;;0.40;0.40;;;4.60;99.90;;;;;;5024808;28;20442;-88
2022/11/24 05:06:24;;;;;;;0.40;0.40;;;4.60;99.90;;;;;;5020892;28;20999;-88
2022/11/24 05:08:51;;;;;;;0.30;0.30;;;4.70;99.90;;;;;;5025354;28;20191;-89
2022/11/24 05:11:17;;;;;;;0.30;0.30;;;4.70;99.90;;;;;;5027374;28;20497;-88
2022/11/24 05:13:42;;;;;;;0.40;0.40;;;4.70;99.90;;;;;;5030302;28;20560;-87
2022/11/24 05:16:08;;;;;;;0.33;0.33;;;4.70;99.90;;;;;;5033218;28;20626;-89
2022/11/24 05:18:34;;;;;;;0.30;0.30;;;4.70;99.90;;;;;;5033546;28;20210;-88
2022/11/24 05:20:59;;;;;;;0.30;0.30;;;4.70;99.90;;;;;;5033581;28;20198;-88
2022/11/24 05:23:26;;;;;;;0.30;0.30;;;4.70;99.90;;;;;;5035927;28;20191;-88
2022/11/24 05:25:51;;;;;;;0.30;0.30;;;4.70;99.90;;;;;;5032398;28;20237;-89
2022/11/24 05:28:18;;;;;;;0.30;0.30;;;4.70;99.90;;;;;;5033691;28;20438;-88
2022/11/24 05:30:43;;;;;;;0.30;0.30;;;4.70;99.90;;;;;;5014555;28;20195;-88
2022/11/24 05:33:17;;;;;;;0.40;0.40;;;4.70;99.90;;;;;;5022728;28;20560;-88
2022/11/24 05:35:43;;;;;;;0.30;0.30;;;4.70;99.90;;;;;;5031095;28;20448;-89
2022/11/24 05:38:09;;;;;;;0.30;0.30;;;4.70;99.90;;;;;;5035813;28;20449;-89
2022/11/24 05:40:35;;;;;;;0.30;0.30;;;4.70;99.90;;;;;;5035210;28;20522;-88
2022/11/24 05:43:00;;;;;;;0.30;0.30;;;4.80;99.90;;;;;;5019662;28;20521;-88
2022/11/24 05:45:26;;;;;;;0.30;0.30;;;4.70;99.90;;;;;;5014691;28;20206;-88
2022/11/24 05:47:52;;;;;;;0.30;0.30;;;4.80;99.90;;;;;;5026819;28;20245;-89
2022/11/24 05:50:19;;;;;;;0.30;0.30;;;4.80;99.90;;;;;;5013111;28;20233;-89
2022/11/24 05:52:45;;;;;;;0.40;0.40;;;4.80;99.90;;;;;;5032421;28;20207;-88
2022/11/24 05:55:11;;;;;;;0.20;0.20;;;4.80;99.90;;;;;;5030737;28;21005;-89
2022/11/24 05:57:37;;;;;;;0.40;0.40;;;4.80;99.90;;;;;;5031418;28;20701;-89
2022/11/24 06:00:05;;;;;;;0.40;0.40;;;4.80;99.90;;;;;;5028412;28;20242;-89
2022/11/24 06:02:31;;;;;;;0.30;0.30;;;4.80;99.90;;;;;;5013272;28;20627;-90
2022/11/24 06:04:56;;;;;;;0.30;0.30;;;4.80;99.90;;;;;;5016354;28;20447;-90
2022/11/24 06:07:22;;;;;;;0.30;0.30;;;4.80;99.90;;;;;;5018307;28;20183;-90
2022/11/24 06:09:47;;;;;;;0.33;0.33;;;4.80;99.90;;;;;;5045207;28;20666;-89
2022/11/24 06:12:13;;;;;;;0.37;0.37;;;4.90;99.90;;;;;;5034392;28;20658;-89
2022/11/24 06:14:39;;;;;;;0.30;0.30;;;4.80;99.90;;;;;;5015359;28;20223;-89
2022/11/24 06:17:05;;;;;;;0.30;0.30;;;4.90;99.90;;;;;;5034659;28;20193;-88
2022/11/24 06:19:31;;;;;;;0.30;0.30;;;4.90;99.90;;;;;;5034519;28;20474;-89
2022/11/24 06:21:57;;;;;;;0.30;0.30;;;4.90;99.90;;;;;;5015692;28;20557;-89
2022/11/24 06:24:22;;;;;;;0.30;0.30;;;4.90;99.90;;;;;;5012369;28;20219;-89
2022/11/24 06:26:48;;;;;;;0.30;0.30;;;4.90;99.90;;;;;;5012430;28;20210;-89
2022/11/24 06:29:13;;;;;;;0.30;0.30;;;4.90;99.90;;;;;;5010574;28;20194;-89
2022/11/24 06:31:39;;;;;;;0.30;0.30;;;4.90;99.90;;;;;;5024170;28;20199;-87
2022/11/24 06:34:06;;;;;;;0.30;0.30;;;4.90;99.90;;;;;;5028311;28;20319;-89
2022/11/24 06:36:32;;;;;;;0.30;0.30;;;4.90;99.90;;;;;;5031062;28;21181;-90
2022/11/24 06:39:00;;;;;;;0.30;0.30;;;5.00;99.90;;;;;;5015903;28;20454;-91
2022/11/24 06:41:26;;;;;;;0.30;0.30;;;5.00;99.90;;;;;;5015120;28;20191;-89
2022/11/24 06:43:51;;;;;;;0.40;0.40;;;5.00;99.90;;;;;;5025566;28;20435;-90
2022/11/24 06:46:17;;;;;;;0.30;0.30;;;4.90;99.90;;;;;;5017412;28;20187;-89
2022/11/24 06:48:42;;;;;;;0.30;0.30;;;5.00;99.90;;;;;;5030935;28;20192;-89
2022/11/24 06:51:11;;;;;;;0.30;0.30;;;4.90;99.90;;;;;;5025700;28;20198;-89
2022/11/24 06:53:39;;;;;;;0.30;0.30;;;5.00;99.90;;;;;;5036612;28;20671;-88
2022/11/24 06:56:06;;;;;;;0.30;0.30;;;5.00;99.90;;;;;;5031250;28;20564;-90
2022/11/24 06:58:32;;;;;;;0.30;0.30;;;5.00;99.90;;;;;;5030376;28;20531;-86
2022/11/24 07:00:57;;;;;;;0.30;0.30;;;5.00;99.90;;;;;;5028971;28;20509;-87
2022/11/24 07:03:23;;;;;;;0.30;0.30;;;5.00;99.90;;;;;;5032088;28;20187;-88
2022/11/24 07:05:48;;;;;;;0.30;0.30;;;5.00;99.90;;;;;;5030306;28;20207;-91
2022/11/24 07:08:14;;;;;;;0.30;0.30;;;5.00;99.90;;;;;;5005171;28;20192;-89
2022/11/24 07:10:40;;;;;;;0.30;0.30;;;5.00;99.90;;;;;;5017749;28;20242;-87
2022/11/24 07:13:08;;;;;;;0.30;0.30;;;5.00;99.90;;;;;;5029594;28;20195;-88
2022/11/24 07:15:34;;;;;;;0.30;0.30;;;5.00;99.90;;;;;;5010754;28;20231;-88
2022/11/24 07:17:59;;;;;;;0.30;0.30;;;5.10;99.90;;;;;;5017989;28;20450;-88
2022/11/24 07:20:25;;;;;;;0.30;0.30;;;5.10;99.90;;;;;;5013831;28;20242;-88
2022/11/24 07:22:57;;;;;;;0.30;0.30;;;5.10;99.90;;;;;;5014144;28;20835;-88
2022/11/24 07:25:26;;;;;;;0.30;0.30;;;5.10;99.90;;;;;;5014851;28;20202;-87
2022/11/24 07:27:56;;;;;;;0.20;0.20;;;5.10;99.90;;;;;;4998455;28;20523;-88
2022/11/24 07:30:22;;;;;;;0.30;0.30;;;5.10;99.90;;;;;;5018618;28;20561;-89
2022/11/24 07:32:48;;;;;;;0.30;0.30;;;5.10;99.90;;;;;;5011336;28;20449;-88
2022/11/24 07:35:13;;;;;;;0.30;0.30;;;5.20;99.90;;;;;;5016526;28;20484;-89
2022/11/24 07:37:39;;;;;;;0.30;0.30;;;5.20;99.90;;;;;;5028634;28;20195;-89
2022/11/24 07:40:05;;;;;;;0.30;0.30;;;5.20;99.90;;;;;;5010864;28;20215;-90
2022/11/24 07:42:31;;;;;;;0.30;0.30;;;5.30;99.90;;;;;;5008502;28;20242;-93
2022/11/24 07:44:56;;;;;;;0.30;0.30;;;5.30;99.90;;;;;;5030682;28;20450;-91
2022/11/24 07:47:21;;;;;;;0.30;0.30;;;5.30;99.90;;;;;;5031918;28;20176;-89
2022/11/24 07:49:47;;;;;;;0.40;0.40;;;5.30;99.90;;;;;;5008711;28;20686;-89
2022/11/24 07:52:12;;;;;;;0.30;0.30;;;5.30;99.90;;;;;;5025978;28;20196;-90
2022/11/24 07:54:38;;;;;;;0.30;0.30;;;5.30;99.90;;;;;;5028177;28;20310;-91
2022/11/24 07:57:03;;;;;;;0.30;0.30;;;5.30;99.90;;;;;;5030016;28;20511;-90
2022/11/24 07:59:29;;;;;;;0.30;0.30;;;5.30;99.90;;;;;;5021719;28;20666;-90
2022/11/24 08:01:54;;;;;;;0.23;0.23;;;5.30;99.90;;;;;;5020679;28;20270;-90
2022/11/24 08:04:20;;;;;;;0.30;0.30;;;5.30;99.90;;;;;;5052409;28;20191;-90
2022/11/24 08:06:45;;;;;;;0.30;0.30;;;5.30;99.90;;;;;;5030644;28;20191;-88
2022/11/24 08:09:11;;;;;;;0.30;0.30;;;5.40;99.90;;;;;;5035478;28;20329;-91
2022/11/24 08:11:36;;;;;;;0.30;0.30;;;5.40;99.90;;;;;;5021223;28;20235;-90
2022/11/24 08:14:03;;;;;;;0.30;0.30;;;5.40;99.90;;;;;;5014804;28;20266;-91
2022/11/24 08:16:28;;;;;;;0.30;0.30;;;5.40;99.90;;;;;;5029494;28;20192;-92
2022/11/24 08:18:55;;;;;;;0.30;0.30;;;5.40;99.90;;;;;;5023407;28;20446;-92
2022/11/24 08:21:24;;;;;;;0.30;0.30;;;5.40;99.90;;;;;;5028433;28;20191;-92
2022/11/24 08:23:56;;;;;;;0.30;0.30;;;5.50;99.90;;;;;;5027280;28;20500;-94
2022/11/24 08:26:23;;;;;;;0.20;0.20;;;5.50;99.90;;;;;;5030120;28;20448;-91
2022/11/24 08:28:53;;;;;;;0.20;0.20;;;5.50;99.90;;;;;;5021802;28;21025;-92
2022/11/24 08:31:18;;;;;;;0.30;0.30;;;5.50;99.90;;;;;;5029593;28;20442;-93
2022/11/24 08:33:45;;;;;;;0.30;0.30;;;5.60;99.90;;;;;;5031511;28;21186;-92
2022/11/24 08:36:14;;;;;;;0.30;0.30;;;5.60;99.90;;;;;;5031798;28;20199;-92
2022/11/24 08:38:40;;;;;;;0.30;0.30;;;5.60;99.90;;;;;;5031758;28;20453;-92
2022/11/24 08:41:09;;;;;;;0.30;0.30;;;5.70;99.90;;;;;;5028384;28;20457;-92
2022/11/24 08:43:35;;;;;;;0.23;0.23;;;5.70;99.90;;;;;;5029750;28;21609;-91
2022/11/24 08:46:05;;;;;;;0.30;0.30;;;5.70;99.90;;;;;;5030113;28;20564;-93
2022/11/24 08:48:30;;;;;;;0.30;0.30;;;5.70;99.90;;;;;;5032900;28;20434;-92
2022/11/24 08:50:57;;;;;;;0.30;0.30;;;5.80;99.90;;;;;;5029275;28;20530;-91
2022/11/24 08:53:22;;;;;;;0.30;0.30;;;5.70;99.90;;;;;;5015356;28;20187;-93
2022/11/24 08:55:48;;;;;;;0.30;0.30;;;5.80;99.90;;;;;;5031064;28;20496;-91
2022/11/24 08:58:13;;;;;;;0.30;0.30;;;5.80;99.90;;;;;;5040315;28;20249;-90
2022/11/24 09:00:39;;;;;;;0.30;0.30;;;5.80;99.90;;;;;;5029517;28;20655;-89
2022/11/24 09:03:04;;;;;;;0.30;0.30;;;5.80;99.90;;;;;;5027908;28;20832;-90
2022/11/24 09:05:32;;;;;;;0.30;0.30;;;5.90;99.90;;;;;;5031285;28;20196;-90
2022/11/24 09:07:57;;;;;;;0.30;0.30;;;5.90;99.90;;;;;;5025413;28;20183;-89
2022/11/24 09:10:22;;;;;;;0.30;0.30;;;5.90;99.90;;;;;;5010308;28;20817;-89
2022/11/24 09:12:50;;;;;;;0.30;0.30;;;5.90;99.90;;;;;;5011110;28;20230;-89
2022/11/24 09:15:15;;;;;;;0.20;0.20;;;5.90;99.90;;;;;;5016281;28;20235;-90
2022/11/24 09:17:42;;;;;;;0.30;0.30;;;6.00;99.90;;;;;;5008640;28;20438;-90
2022/11/24 09:20:08;;;;;;;0.30;0.30;;;6.00;99.90;;;;;;5023044;28;20657;-90
2022/11/24 09:22:33;;;;;;;0.30;0.30;;;6.00;99.90;;;;;;5019968;28;20976;-91
2022/11/24 09:24:59;;;;;;;0.20;0.20;;;6.10;99.90;;;;;;5029782;28;20484;-89
2022/11/24 09:27:25;;;;;;;0.30;0.30;;;6.10;99.90;;;;;;5030391;28;20191;-90
2022/11/24 09:29:51;;;;;;;0.20;0.20;;;6.20;99.90;;;;;;5031663;28;20180;-91
2022/11/24 09:32:16;;;;;;;0.30;0.30;;;6.20;99.90;;;;;;5009519;28;20948;-91
2022/11/24 09:34:41;;;;;;;0.30;0.30;;;6.20;99.90;;;;;;5028070;28;20237;-90
2022/11/24 09:37:07;;;;;;;0.30;0.30;;;6.20;99.90;;;;;;5030663;28;20187;-93
2022/11/24 09:39:32;;;;;;;0.20;0.20;;;6.20;99.90;;;;;;5032021;28;20195;-92
2022/11/24 09:42:26;;;;;;;0.30;0.30;;;6.20;99.90;;;;;;5028444;28;20265;-90
2022/11/24 09:45:07;;;;;;;0.30;0.30;;;6.30;99.90;;;;;;5019256;28;20282;-92
2022/11/24 09:47:59;;;;;;;0.27;0.27;;;6.30;99.90;;;;;;5030912;28;20521;-91
2022/11/24 09:50:30;;;;;;;0.20;0.20;;;6.30;99.90;;;;;;5040590;28;20442;-91
2022/11/24 09:53:02;;;;;;;0.30;0.30;;;6.30;99.90;;;;;;5027797;28;20522;-92
2022/11/24 09:55:33;;;;;;;0.30;0.30;;;6.40;99.90;;;;;;5017345;28;20481;-92
2022/11/24 09:58:20;;;;;;;0.20;0.20;;;6.40;99.90;;;;;;5031958;28;20445;-91
2022/11/24 10:00:49;;;;;;;0.30;0.30;;;6.40;99.90;;;;;;5033887;28;20449;-91
2022/11/24 10:03:24;;;;;;;0.30;0.30;;;6.40;99.90;;;;;;5034531;28;20438;-92
2022/11/24 10:05:51;;;;;;;0.30;0.30;;;6.40;99.90;;;;;;5015096;28;20901;-92
2022/11/24 10:08:26;;;;;;;0.30;0.30;;;6.50;99.90;;;;;;5030298;28;20438;-91
2022/11/24 10:10:58;;;;;;;0.30;0.30;;;6.50;99.90;;;;;;5031392;28;20488;-92
2022/11/24 10:13:55;;;;;;;0.20;0.20;;;6.50;99.90;;;;;;5020072;28;20460;-91
2022/11/24 10:16:37;;;;;;;0.20;0.20;;;6.50;99.90;;;;;;5012471;28;20504;-90
2022/11/24 10:19:24;;;;;;;0.30;0.30;;;6.50;99.90;;;;;;5028593;28;20491;-92
2022/11/24 10:22:17;;;;;;;0.30;0.30;;;6.50;99.90;;;;;;5032806;28;20496;-92
2022/11/24 10:25:11;;;;;;;0.30;0.30;;;6.60;99.90;;;;;;5026174;28;20442;-90
2022/11/24 10:27:42;;;;;;;0.30;0.30;;;6.60;99.90;;;;;;5015049;28;20434;-91
2022/11/24 10:30:18;;;;;;;0.30;0.30;;;6.60;99.90;;;;;;5036065;28;20448;-92
2022/11/24 10:32:46;;;;;;;0.30;0.30;;;6.60;99.90;;;;;;5038776;28;20454;-91
2022/11/24 10:35:44;;;;;;;0.20;0.20;;;6.60;99.90;;;;;;5036726;28;20513;-91
2022/11/24 10:38:40;;;;;;;0.30;0.30;;;6.70;99.90;;;;;;5031599;28;20445;-92
2022/11/24 10:41:13;;;;;;;0.30;0.30;;;6.70;99.90;;;;;;5033532;28;20568;-92
2022/11/24 10:43:40;;;;;;;0.30;0.30;;;6.70;99.90;;;;;;5032320;28;20931;-92
2022/11/24 10:46:13;;;;;;;0.30;0.30;;;6.70;99.90;;;;;;5019774;28;20954;-95
2022/11/24 10:48:50;;;;;;;0.30;0.30;;;6.70;99.90;;;;;;5031249;28;20438;-90
2022/11/24 10:51:37;;;;;;;0.20;0.20;;;6.70;99.90;;;;;;5015579;28;20478;-89
2022/11/24 10:54:14;;;;;;;0.20;0.20;;;6.70;99.90;;;;;;5046305;28;20516;-93
2022/11/24 10:56:41;;;;;;;0.30;0.30;;;6.70;99.90;;;;;;5039411;28;20513;-92
2022/11/24 10:59:39;;;;;;;0.20;0.20;;;6.80;99.90;;;;;;5015922;28;20456;-94
2022/11/24 11:02:31;;;;;;;0.30;0.30;;;6.80;99.90;;;;;;4992894;28;20461;-94
2022/11/24 11:04:57;;;;;;;0.30;0.30;;;6.90;99.90;;;;;;5036249;28;20469;-93
2022/11/24 11:07:25;;;;;;;0.30;0.30;;;6.90;99.90;;;;;;5043273;28;20470;-94
2022/11/24 11:10:16;;;;;;;0.30;0.30;;;6.90;99.90;;;;;;5016181;28;20435;-91
2022/11/24 11:12:42;;;;;;;0.30;0.30;;;7.00;99.90;;;;;;5031505;28;20470;-93
2022/11/24 11:15:27;;;;;;;0.30;0.30;;;7.00;99.90;;;;;;5033681;28;20474;-92
2022/11/24 11:17:57;;;;;;;0.30;0.30;;;7.00;99.90;;;;;;4963407;28;20187;-94
2022/11/24 11:20:52;;;;;;;0.20;0.20;;;7.10;99.90;;;;;;5012921;28;20535;-93
2022/11/24 11:23:27;;;;;;;0.20;0.20;;;7.10;99.90;;;;;;4958523;28;20465;-88
2022/11/24 11:26:32;;;;;;;0.20;0.20;;;7.10;99.90;;;;;;5006063;28;20901;-88
2022/11/24 11:29:01;;;;;;;0.30;0.30;;;7.10;99.90;;;;;;5014026;28;20438;-89
2022/11/24 11:31:28;;;;;;;0.30;0.30;;;7.20;99.90;;;;;;5004991;28;20438;-88
2022/11/24 11:33:56;;;;;;;0.30;0.30;;;7.10;99.90;;;;;;5021394;28;20560;-86
2022/11/24 11:36:23;;;;;;;0.30;0.30;;;7.20;99.90;;;;;;5029122;28;20455;-88
2022/11/24 11:38:49;;;;;;;0.30;0.30;;;7.20;99.90;;;;;;4995560;28;20437;-87
2022/11/24 11:41:37;;;;;;;0.20;0.20;;;7.20;99.90;;;;;;5006695;28;20445;-87
2022/11/24 11:44:49;;;;;;;0.20;0.20;;;7.30;99.90;;;;;;5030271;28;20184;-87
2022/11/24 11:47:26;;;;;;;0.20;0.20;;;7.30;99.90;;;;;;4968363;28;20962;-87
2022/11/24 11:49:52;;;;;;;0.20;0.20;;;7.30;99.90;;;;;;5029303;28;20470;-88
2022/11/24 11:52:44;;;;;;;0.30;0.30;;;7.30;99.90;;;;;;5029506;28;20442;-90
2022/11/24 11:55:37;;;;;;;0.30;0.30;;;7.40;99.90;;;;;;4967503;28;21005;-91
2022/11/24 11:58:31;;;;;;;0.20;0.20;;;7.40;99.90;;;;;;5025260;28;20438;-89
2022/11/24 12:01:17;;;;;;;0.30;0.30;;;7.40;99.90;;;;;;5030826;28;20442;-90
2022/11/24 12:04:12;;;;;;;0.20;0.20;;;7.50;99.90;;;;;;5014689;28;20442;-90
2022/11/24 12:06:46;;;;;;;0.30;0.30;;;7.50;99.90;;;;;;5034094;28;20438;-90
2022/11/24 12:09:43;;;;;;;0.30;0.30;;;7.60;99.90;;;;;;5011964;28;20458;-90
2022/11/24 12:12:26;;;;;;;0.20;0.20;;;7.60;99.90;;;;;;5025782;28;20474;-87
2022/11/24 12:15:11;;;;;;;0.20;0.20;;;7.60;99.90;;;;;;5016465;28;20488;-88
2022/11/24 12:17:41;;;;;;;0.30;0.30;;;7.60;99.90;;;;;;5030500;28;20958;-89
2022/11/24 12:20:30;;;;;;;0.20;0.20;;;7.60;99.90;;;;;;5030273;28;20500;-87
2022/11/24 12:23:15;;;;;;;0.20;0.20;;;7.70;99.90;;;;;;5012028;28;20852;-89
2022/11/24 12:25:52;;;;;;;0.20;0.20;;;7.70;99.90;;;;;;5030156;28;20469;-91
2022/11/24 12:28:20;;;;;;;0.20;0.20;;;7.70;99.90;;;;;;5007725;28;20490;-88
2022/11/24 12:31:01;;;;;;;0.20;0.20;;;7.70;99.90;;;;;;5009391;28;20451;-86
2022/11/24 12:33:49;;;;;;;0.20;0.20;;;7.70;99.90;;;;;;4946141;28;20439;-88
2022/11/24 12:36:39;;;;;;;0.20;0.20;;;7.70;99.90;;;;;;5027413;28;20511;-88
2022/11/24 12:39:26;;;;;;;0.20;0.20;;;7.70;99.90;;;;;;5022936;28;20453;-88
2022/11/24 12:42:24;;;;;;;0.20;0.20;;;7.70;99.90;;;;;;5027297;28;20431;-88
2022/11/24 12:45:07;;;;;;;0.20;0.20;;;7.70;99.90;;;;;;5019819;28;20438;-89
2022/11/24 12:47:48;;;;;;;0.30;0.30;;;7.70;99.90;;;;;;4960757;28;20469;-88
2022/11/24 12:50:18;;;;;;;0.20;0.20;;;7.70;99.90;;;;;;4991747;28;20535;-89
2022/11/24 12:52:49;;;;;;;0.20;0.20;;;7.70;99.90;;;;;;5010100;28;20969;-89
2022/11/24 12:55:19;;;;;;;0.20;0.20;;;7.80;99.90;;;;;;5012223;28;20486;-90
2022/11/24 12:58:11;;;;;;;0.20;0.20;;;7.80;99.90;;;;;;4950138;29;20525;-89
2022/11/24 13:00:56;;;;;;;0.20;0.20;;;7.80;99.90;;;;;;4977182;28;20454;-89
2022/11/24 13:03:36;;;;;;;0.20;0.20;;;7.80;99.90;;;;;;5002762;28;20442;-87
2022/11/24 13:06:16;;;;;;;0.20;0.20;;;7.80;99.90;;;;;;5027342;28;20532;-91
2022/11/24 13:08:42;;;;;;;0.20;0.20;;;7.80;99.90;;;;;;5011382;28;20453;-92
2022/11/24 13:11:20;;;;;;;0.30;0.30;;;7.80;99.90;;;;;;5003647;28;20461;-90
2022/11/24 13:14:01;;;;;;;0.23;0.23;;;7.80;99.90;;;;;;5047899;28;20277;-86